Terminal Aerodrome Forecast
Issued by NWS

Home | Current Version | Previous Version | Text Only | Print | Product List | Glossary Off
Versions: 1 2 3 4 5 6 7 8 9 10 11 12

000
FTUS43 KICT 241123
TAFSLN
TAF
KSLN 241123Z 2412/2512 27013KT P6SM FEW150
     FM241500 32019G28KT P6SM FEW100
     FM242300 31007KT P6SM SCT200=

USA.gov is the U.S. government's official web portal to all federal, state and local government web resources and services.